Time;durP1;ratioP1;P1;durP2;ratioP2;P2;SDS_P1;SDS_P2;PMS_P1;PMS_P2;Temp;Humidity;BMP_temperature;BMP_pressure;BME280_temperature;BME280_humidity;BME280_pressure;Samples;Min_cycle;Max_cycle;Signal;HPM_P1;HPM_P2
2023/07/30 00:00:18;;;;;;;1.83;1.27;;;22.60;1.00;;;;;;5139489;28;20052;-70
2023/07/30 00:02:51;;;;;;;3.97;1.10;;;22.60;1.00;;;;;;5156331;28;20056;-70
2023/07/30 00:05:22;;;;;;;1.73;1.38;;;22.60;1.00;;;;;;5162674;28;20046;-71
2023/07/30 00:07:55;;;;;;;1.30;1.20;;;22.60;1.00;;;;;;5146044;28;20033;-70
2023/07/30 00:10:29;;;;;;;1.13;1.02;;;22.60;1.00;;;;;;5159579;28;20038;-70
2023/07/30 00:13:00;;;;;;;1.33;1.23;;;22.50;1.00;;;;;;5162820;28;20045;-70
2023/07/30 00:15:32;;;;;;;1.42;1.15;;;22.50;1.00;;;;;;5174175;28;20034;-71
2023/07/30 00:18:04;;;;;;;1.15;0.98;;;22.40;1.00;;;;;;5175361;28;20037;-69
2023/07/30 00:20:35;;;;;;;2.10;1.30;;;22.10;1.00;;;;;;5176801;28;20064;-70
2023/07/30 00:23:14;;;;;;;1.52;1.35;;;21.80;99.90;;;;;;5144567;28;20248;-70
2023/07/30 00:25:45;;;;;;;1.33;1.10;;;21.60;99.90;;;;;;5144544;28;20041;-71
2023/07/30 00:28:20;;;;;;;1.55;1.30;;;21.50;1.00;;;;;;5164799;28;20246;-70
2023/07/30 00:30:52;;;;;;;1.75;1.33;;;21.30;1.00;;;;;;5139575;28;20038;-70
2023/07/30 00:33:24;;;;;;;1.38;1.27;;;21.00;1.00;;;;;;5131643;28;20096;-70
2023/07/30 00:35:55;;;;;;;1.50;1.20;;;20.80;1.00;;;;;;5120949;28;20039;-70
2023/07/30 00:38:27;;;;;;;2.25;0.85;;;20.80;1.00;;;;;;5121710;28;20047;-70
2023/07/30 00:41:04;;;;;;;1.05;0.95;;;20.90;1.00;;;;;;5146462;28;20033;-71
2023/07/30 00:43:35;;;;;;;1.63;1.23;;;21.10;99.90;;;;;;5168750;28;20033;-71
2023/07/30 00:46:07;;;;;;;1.90;1.10;;;21.20;1.00;;;;;;5137871;28;20031;-71
2023/07/30 00:48:38;;;;;;;1.55;1.10;;;21.30;1.00;;;;;;5141836;28;20034;-71
2023/07/30 00:51:19;;;;;;;1.70;1.27;;;21.50;99.90;;;;;;5142699;28;20038;-71
2023/07/30 00:53:50;;;;;;;1.27;1.17;;;21.70;1.00;;;;;;5136256;28;20138;-70
2023/07/30 00:56:24;;;;;;;1.17;1.08;;;21.70;1.00;;;;;;5157928;28;20323;-70
2023/07/30 00:58:56;;;;;;;1.15;1.05;;;21.80;1.00;;;;;;5124205;28;20026;-71
2023/07/30 01:01:31;;;;;;;1.27;1.17;;;21.80;1.00;;;;;;5186002;23;20045;-87
2023/07/30 01:04:17;;;;;;;0.82;0.70;;;21.80;1.00;;;;;;5167672;28;20036;-86
2023/07/30 01:06:52;;;;;;;1.92;1.00;;;21.80;1.00;;;;;;5166606;28;20034;-87
2023/07/30 01:09:27;;;;;;;1.58;1.30;;;21.70;1.00;;;;;;5166013;28;20034;-86
2023/07/30 01:11:59;;;;;;;1.17;0.98;;;21.70;1.00;;;;;;5181514;28;20335;-86
2023/07/30 01:14:31;;;;;;;1.15;1.02;;;21.70;1.00;;;;;;5168578;28;20022;-85
2023/07/30 01:17:05;;;;;;;1.27;1.17;;;21.70;1.00;;;;;;5168208;28;20040;-87
2023/07/30 01:19:38;;;;;;;1.20;1.10;;;21.70;1.00;;;;;;5167998;28;20036;-87
2023/07/30 01:22:10;;;;;;;1.38;1.20;;;21.70;1.00;;;;;;5167991;28;20036;-85
2023/07/30 01:24:47;;;;;;;1.75;1.20;;;21.80;99.90;;;;;;5200763;28;20032;-86
2023/07/30 01:27:33;;;;;;;1.73;1.33;;;21.80;99.90;;;;;;5200273;28;20037;-87
2023/07/30 01:30:08;;;;;;;1.48;1.10;;;21.80;99.90;;;;;;5167534;28;20025;-86
2023/07/30 01:32:41;;;;;;;1.67;1.20;;;21.90;1.00;;;;;;5167779;28;20033;-85
2023/07/30 01:35:14;;;;;;;1.50;1.23;;;21.90;1.00;;;;;;5167792;28;20324;-86
2023/07/30 01:37:50;;;;;;;1.33;1.23;;;21.90;1.00;;;;;;5167676;28;20044;-85
2023/07/30 01:40:22;;;;;;;1.38;1.13;;;22.00;1.00;;;;;;5167676;28;20223;-85
2023/07/30 01:42:56;;;;;;;1.13;1.00;;;21.90;1.00;;;;;;5200097;28;20036;-87
2023/07/30 01:48:58;;;;;;;1.60;0.95;;;21.90;1.00;;;;;;5186356;28;20032;-86
2023/07/30 01:55:01;;;;;;;2.45;1.10;;;21.90;1.00;;;;;;5186140;28;20036;-86
2023/07/30 01:57:32;;;;;;;1.00;0.95;;;22.00;1.00;;;;;;5157442;28;20033;-86
2023/07/30 02:00:07;;;;;;;1.35;1.25;;;21.90;1.00;;;;;;5171163;28;20036;-86
2023/07/30 02:03:00;;;;;;;2.13;1.17;;;21.90;1.00;;;;;;5190114;28;20036;-86
2023/07/30 02:05:32;;;;;;;;;;;21.80;1.00;;;;;;5184176;28;20203;-86
2023/07/30 02:08:04;;;;;;;1.48;1.10;;;21.80;1.00;;;;;;5168163;28;19965;-86
2023/07/30 02:10:42;;;;;;;1.55;1.20;;;21.80;1.00;;;;;;5183851;28;20033;-86
2023/07/30 02:13:14;;;;;;;1.10;1.00;;;21.80;1.00;;;;;;5200410;28;20056;-87
2023/07/30 02:15:49;;;;;;;1.98;1.35;;;21.70;1.00;;;;;;5184371;28;20030;-87
2023/07/30 02:18:24;;;;;;;1.48;1.15;;;21.70;1.00;;;;;;5168761;28;20029;-87
2023/07/30 02:20:56;;;;;;;1.20;1.10;;;21.70;1.00;;;;;;5152059;28;20055;-87
2023/07/30 02:23:28;;;;;;;1.33;1.23;;;21.80;1.00;;;;;;5167379;28;20034;-87
2023/07/30 02:26:02;;;;;;;1.98;1.20;;;21.80;1.00;;;;;;5167480;28;20040;-87
2023/07/30 02:28:36;;;;;;;;;;;21.90;1.00;;;;;;5199859;28;20033;-87
2023/07/30 02:31:11;;;;;;;1.08;0.95;;;21.90;1.00;;;;;;5199947;28;19901;-87
2023/07/30 02:33:50;;;;;;;2.45;1.55;;;21.80;1.00;;;;;;5188186;28;20030;-88
2023/07/30 02:36:38;;;;;;;1.98;1.25;;;21.80;1.00;;;;;;5172626;28;20296;-87
2023/07/30 02:39:11;;;;;;;1.67;1.20;;;21.80;1.00;;;;;;5183456;28;20076;-87
2023/07/30 02:41:43;;;;;;;0.90;0.90;;;21.80;1.00;;;;;;5168474;28;20029;-86
2023/07/30 02:44:20;;;;;;;0.88;0.85;;;21.80;1.00;;;;;;5184350;28;20040;-86
2023/07/30 02:46:54;;;;;;;1.98;1.30;;;21.70;1.00;;;;;;5185534;28;20033;-86
2023/07/30 02:49:32;;;;;;;2.03;1.42;;;21.70;1.00;;;;;;5153349;28;20044;-87
2023/07/30 02:52:04;;;;;;;2.83;1.30;;;21.80;1.00;;;;;;5183769;28;20036;-86
2023/07/30 02:54:37;;;;;;;1.13;1.02;;;21.80;1.00;;;;;;5166132;28;20034;-86
2023/07/30 02:57:10;;;;;;;1.33;1.20;;;21.80;1.00;;;;;;5165609;28;20039;-85
2023/07/30 02:59:46;;;;;;;1.60;1.50;;;21.80;1.00;;;;;;5166947;28;20030;-86
2023/07/30 03:02:20;;;;;;;2.58;1.25;;;21.80;1.00;;;;;;5168546;28;20339;-86
2023/07/30 03:05:16;;;;;;;1.40;1.20;;;21.80;1.00;;;;;;5174805;28;20026;-85
2023/07/30 03:07:47;;;;;;;1.35;1.10;;;21.80;1.00;;;;;;5182952;28;20029;-85
2023/07/30 03:10:20;;;;;;;2.92;1.48;;;21.80;1.00;;;;;;5183832;28;20036;-86
2023/07/30 03:12:51;;;;;;;1.42;1.30;;;21.70;1.00;;;;;;5199542;28;20204;-86
2023/07/30 03:15:24;;;;;;;1.85;1.38;;;21.70;1.00;;;;;;5184821;28;20040;-86
2023/07/30 03:17:55;;;;;;;1.40;1.20;;;21.70;1.00;;;;;;5168152;28;20038;-86
2023/07/30 03:20:27;;;;;;;1.10;1.00;;;21.70;1.00;;;;;;5182435;28;20207;-86
2023/07/30 03:23:05;;;;;;;1.45;1.30;;;21.70;1.00;;;;;;5166054;28;20034;-87
2023/07/30 03:25:38;;;;;;;1.67;1.38;;;21.80;1.00;;;;;;5185624;28;20030;-87
2023/07/30 03:28:11;;;;;;;1.70;1.00;;;21.80;1.00;;;;;;5151489;28;20216;-87
2023/07/30 03:30:50;;;;;;;1.30;1.20;;;21.70;1.00;;;;;;5150336;28;20037;-88
2023/07/30 03:33:22;;;;;;;2.05;0.93;;;21.70;1.00;;;;;;5166884;28;20038;-89
2023/07/30 03:35:53;;;;;;;1.38;1.10;;;21.70;1.00;;;;;;5182159;28;20034;-86
2023/07/30 03:38:30;;;;;;;1.85;1.65;;;21.70;1.00;;;;;;5182445;28;20029;-86
2023/07/30 03:41:06;;;;;;;1.30;1.20;;;21.70;1.00;;;;;;5167671;28;20144;-88
2023/07/30 03:43:39;;;;;;;1.40;1.23;;;21.70;1.00;;;;;;5186540;28;20030;-85
2023/07/30 03:46:13;;;;;;;1.30;0.95;;;21.70;1.00;;;;;;5186201;28;20354;-86
2023/07/30 03:48:44;;;;;;;1.40;1.23;;;21.80;1.00;;;;;;5198475;28;20194;-85
2023/07/30 03:51:18;;;;;;;2.55;1.25;;;21.80;1.00;;;;;;5165155;28;20033;-85
2023/07/30 03:53:55;;;;;;;1.40;1.30;;;21.80;1.00;;;;;;5183473;28;20040;-88
2023/07/30 03:56:44;;;;;;;1.77;1.40;;;21.90;1.00;;;;;;5183116;28;20040;-87
2023/07/30 03:59:25;;;;;;;1.10;1.00;;;21.90;1.00;;;;;;5168787;28;20037;-87
2023/07/30 04:02:04;;;;;;;1.63;1.20;;;22.00;1.00;;;;;;5201924;28;20044;-87
2023/07/30 04:04:38;;;;;;;1.95;1.50;;;22.00;1.00;;;;;;5185726;28;20034;-88
2023/07/30 04:07:11;;;;;;;1.33;1.23;;;22.00;1.00;;;;;;5203499;28;20339;-87
2023/07/30 04:09:42;;;;;;;1.92;1.00;;;22.00;1.00;;;;;;5153239;28;20214;-87
2023/07/30 04:12:14;;;;;;;1.63;0.90;;;22.00;1.00;;;;;;5183741;28;20037;-88
2023/07/30 04:14:52;;;;;;;1.30;1.15;;;22.00;1.00;;;;;;5189146;28;20052;-88
2023/07/30 04:17:27;;;;;;;1.65;1.45;;;22.00;1.00;;;;;;5152547;28;20033;-87
2023/07/30 04:19:59;;;;;;;1.50;1.25;;;22.00;1.00;;;;;;5166106;28;20025;-87
2023/07/30 04:22:32;;;;;;;1.48;1.13;;;22.00;1.00;;;;;;5166249;28;20292;-87
2023/07/30 04:25:04;;;;;;;1.42;1.23;;;22.00;1.00;;;;;;5182646;28;20090;-87
2023/07/30 04:27:46;;;;;;;1.43;1.33;;;22.00;1.00;;;;;;5150573;28;20038;-87
2023/07/30 04:30:21;;;;;;;1.98;1.30;;;22.00;1.00;;;;;;5164858;28;20256;-87
2023/07/30 04:33:00;;;;;;;1.73;1.50;;;21.90;43.70;;;;;;5181689;28;20118;-88
2023/07/30 04:35:35;;;;;;;1.75;1.45;;;21.80;99.90;;;;;;5169065;28;20038;-87
2023/07/30 04:38:13;;;;;;;1.13;1.02;;;21.80;79.50;;;;;;5151192;28;20032;-87
2023/07/30 04:40:47;;;;;;;0.90;0.90;;;21.90;99.90;;;;;;5183459;28;20034;-86
2023/07/30 04:43:19;;;;;;;1.52;0.88;;;21.90;1.00;;;;;;5184982;28;20026;-87
2023/07/30 04:46:00;;;;;;;1.20;1.10;;;21.90;1.00;;;;;;5183256;28;20026;-87
2023/07/30 04:48:34;;;;;;;1.58;1.23;;;21.90;1.00;;;;;;5189642;28;20034;-87
2023/07/30 04:51:07;;;;;;;1.85;1.45;;;21.90;1.00;;;;;;5207048;28;20038;-87
2023/07/30 04:53:42;;;;;;;1.40;1.20;;;21.90;1.00;;;;;;5190215;28;20030;-88
2023/07/30 04:56:19;;;;;;;1.48;1.20;;;22.00;1.00;;;;;;5175349;28;20034;-86
2023/07/30 04:58:57;;;;;;;1.98;1.40;;;22.00;1.00;;;;;;5197025;28;20046;-85
2023/07/30 05:01:34;;;;;;;1.40;1.30;;;22.00;99.90;;;;;;5183581;28;20030;-86
2023/07/30 05:04:07;;;;;;;1.52;1.40;;;21.90;1.00;;;;;;5181996;28;20052;-86
2023/07/30 05:06:40;;;;;;;1.77;1.33;;;21.80;1.00;;;;;;5198617;28;20026;-86
2023/07/30 05:09:12;;;;;;;1.33;1.23;;;21.70;99.90;;;;;;5163607;23;20053;-72
2023/07/30 05:11:43;;;;;;;1.73;1.23;;;21.60;99.90;;;;;;5132157;28;20228;-73
2023/07/30 05:14:15;;;;;;;1.73;1.27;;;21.50;99.90;;;;;;5130826;28;20022;-73
2023/07/30 05:16:49;;;;;;;1.35;1.17;;;21.60;1.00;;;;;;5130375;28;20252;-72
2023/07/30 05:19:20;;;;;;;2.00;1.48;;;21.60;1.00;;;;;;5135016;28;20049;-78
2023/07/30 05:21:51;;;;;;;2.15;1.17;;;21.70;1.00;;;;;;5134782;28;20035;-71
2023/07/30 05:24:23;;;;;;;1.30;1.17;;;21.80;1.00;;;;;;5122608;28;20031;-71
2023/07/30 05:26:56;;;;;;;1.38;1.27;;;21.80;99.90;;;;;;5136431;28;20141;-71
2023/07/30 05:29:30;;;;;;;1.30;1.20;;;21.90;99.90;;;;;;5140936;28;20026;-73
2023/07/30 05:32:01;;;;;;;1.33;1.20;;;21.90;99.90;;;;;;5138364;28;20057;-73
2023/07/30 05:34:33;;;;;;;1.20;1.10;;;21.90;55.70;;;;;;5139361;28;20228;-71
2023/07/30 05:37:09;;;;;;;0.95;0.95;;;21.90;1.00;;;;;;5139911;28;20262;-72
2023/07/30 05:39:40;;;;;;;1.88;1.52;;;21.90;1.00;;;;;;5140007;28;20254;-73
2023/07/30 05:42:11;;;;;;;1.35;1.10;;;21.80;1.00;;;;;;5139887;28;20270;-72
2023/07/30 05:44:43;;;;;;;1.73;1.40;;;21.60;1.00;;;;;;5140788;28;20038;-77
2023/07/30 05:47:17;;;;;;;1.60;1.10;;;21.50;99.90;;;;;;5138737;28;20039;-73
2023/07/30 05:49:51;;;;;;;1.52;1.35;;;21.50;99.90;;;;;;5141893;28;20415;-72
2023/07/30 05:52:26;;;;;;;1.60;1.10;;;21.50;73.20;;;;;;5146817;28;20225;-73
2023/07/30 05:54:57;;;;;;;1.58;1.20;;;21.60;1.00;;;;;;5153635;28;20323;-72
2023/07/30 05:57:31;;;;;;;1.33;1.00;;;21.80;1.00;;;;;;5143801;28;20347;-73
2023/07/30 06:00:02;;;;;;;1.30;1.17;;;21.90;99.90;;;;;;5174273;28;20022;-72
2023/07/30 06:02:36;;;;;;;1.50;1.40;;;22.00;99.90;;;;;;5146519;28;20034;-72
2023/07/30 06:05:08;;;;;;;1.17;1.08;;;22.10;15.90;;;;;;5139678;28;20034;-72
2023/07/30 06:07:45;;;;;;;0.80;0.80;;;22.20;1.00;;;;;;5142916;28;20050;-72
2023/07/30 06:10:18;;;;;;;1.73;1.20;;;22.30;1.00;;;;;;5159442;28;20312;-72
2023/07/30 06:12:50;;;;;;;1.33;1.20;;;22.40;1.00;;;;;;5156315;28;20336;-72
2023/07/30 06:15:21;;;;;;;1.10;0.95;;;22.40;1.00;;;;;;5156515;28;20073;-72
2023/07/30 06:17:53;;;;;;;1.40;1.30;;;22.50;1.00;;;;;;5158103;28;20049;-72
2023/07/30 06:20:24;;;;;;;1.30;1.15;;;22.50;1.00;;;;;;5139663;28;20247;-73
2023/07/30 06:22:58;;;;;;;1.23;1.13;;;22.50;1.00;;;;;;5153838;28;20042;-73
2023/07/30 06:25:30;;;;;;;1.42;1.33;;;22.50;1.00;;;;;;5151892;28;20500;-74
2023/07/30 06:28:07;;;;;;;1.33;1.23;;;22.50;1.00;;;;;;5132998;28;20050;-72
2023/07/30 06:30:39;;;;;;;1.30;0.90;;;22.60;1.00;;;;;;5127152;28;20034;-71
2023/07/30 06:33:13;;;;;;;1.23;1.05;;;22.70;1.00;;;;;;5148270;28;20534;-71
2023/07/30 06:35:46;;;;;;;1.75;1.40;;;22.70;1.00;;;;;;5158982;28;20026;-72
2023/07/30 06:38:18;;;;;;;1.50;1.20;;;22.60;1.00;;;;;;5147069;28;20058;-71
2023/07/30 06:40:49;;;;;;;1.40;1.20;;;22.40;1.00;;;;;;5139536;28;20620;-72
2023/07/30 06:43:25;;;;;;;1.25;1.10;;;22.30;1.00;;;;;;5140113;28;20037;-75
2023/07/30 06:45:57;;;;;;;1.40;1.30;;;22.20;1.00;;;;;;5146809;28;20041;-70
2023/07/30 06:48:33;;;;;;;1.88;1.17;;;22.20;1.00;;;;;;5143040;28;20060;-71
2023/07/30 06:51:13;;;;;;;1.10;0.90;;;22.10;71.00;;;;;;5138108;28;20030;-71
2023/07/30 06:53:50;;;;;;;0.90;0.90;;;22.00;99.90;;;;;;5134249;28;20026;-72
2023/07/30 06:56:21;;;;;;;1.38;1.08;;;21.90;1.00;;;;;;5130553;28;20031;-72
2023/07/30 06:58:55;;;;;;;2.83;1.52;;;21.80;1.00;;;;;;5142489;28;20038;-73
2023/07/30 07:01:26;;;;;;;1.80;1.20;;;21.80;99.90;;;;;;5138487;28;20333;-71
2023/07/30 07:03:57;;;;;;;1.35;1.13;;;21.70;99.90;;;;;;5149038;28;20492;-72
2023/07/30 07:06:31;;;;;;;1.20;1.10;;;21.70;1.00;;;;;;5140342;28;20391;-71
2023/07/30 07:09:03;;;;;;;1.80;1.13;;;21.60;1.00;;;;;;5147781;28;20050;-72
2023/07/30 07:11:34;;;;;;;1.85;1.40;;;21.60;1.00;;;;;;5157064;28;20030;-73
2023/07/30 07:14:08;;;;;;;3.40;1.38;;;21.60;1.00;;;;;;5123707;28;20049;-71
2023/07/30 07:16:39;;;;;;;1.65;1.20;;;21.50;1.00;;;;;;5118487;28;20046;-75
2023/07/30 07:19:13;;;;;;;1.67;1.40;;;21.60;1.00;;;;;;5118756;28;20043;-72
2023/07/30 07:21:47;;;;;;;2.67;2.20;;;21.50;99.90;;;;;;5152789;28;20034;-71
2023/07/30 07:24:18;;;;;;;1.35;1.25;;;21.40;99.90;;;;;;5149469;28;20051;-71
2023/07/30 07:26:51;;;;;;;1.42;1.30;;;21.40;1.00;;;;;;5151614;28;20436;-71
2023/07/30 07:29:25;;;;;;;1.45;1.33;;;21.40;1.00;;;;;;5153866;28;20041;-70
2023/07/30 07:31:57;;;;;;;1.30;1.20;;;21.30;1.00;;;;;;5133798;28;20030;-71
2023/07/30 07:34:31;;;;;;;1.50;1.23;;;21.20;1.00;;;;;;5139099;28;20047;-73
2023/07/30 07:37:06;;;;;;;1.30;1.20;;;21.10;1.00;;;;;;5158392;28;20038;-73
2023/07/30 07:39:39;;;;;;;1.40;1.30;;;21.10;1.00;;;;;;5142429;28;20038;-73
2023/07/30 07:42:14;;;;;;;1.20;1.00;;;21.20;1.00;;;;;;5154020;28;20031;-78
2023/07/30 07:44:46;;;;;;;;;;;21.10;1.40;;;;;;5148977;28;20034;-71
2023/07/30 07:47:20;;;;;;;1.02;0.90;;;21.10;75.80;;;;;;5134331;28;19915;-71
2023/07/30 07:49:51;;;;;;;1.25;1.15;;;21.30;1.00;;;;;;5136135;28;20655;-73
2023/07/30 07:52:26;;;;;;;1.50;1.20;;;21.40;1.00;;;;;;5142748;28;20376;-71
2023/07/30 07:55:00;;;;;;;1.27;1.17;;;21.50;1.00;;;;;;5140509;28;20477;-72
2023/07/30 07:57:34;;;;;;;1.15;0.90;;;21.40;1.00;;;;;;5144034;28;20031;-72
2023/07/30 08:00:11;;;;;;;1.45;1.25;;;21.60;1.00;;;;;;5150493;28;20141;-71
2023/07/30 08:02:42;;;;;;;1.35;1.25;;;21.60;1.00;;;;;;5142529;28;20046;-71
2023/07/30 08:05:19;;;;;;;1.20;1.00;;;21.70;99.90;;;;;;5130168;28;20037;-72
2023/07/30 08:07:50;;;;;;;1.10;1.00;;;21.70;62.70;;;;;;5141588;28;20054;-72
2023/07/30 08:10:25;;;;;;;1.20;1.10;;;21.70;99.90;;;;;;5149910;28;20038;-72
2023/07/30 08:12:56;;;;;;;1.67;1.40;;;21.70;99.90;;;;;;5141357;28;20490;-73
2023/07/30 08:15:30;;;;;;;1.17;1.10;;;21.90;1.00;;;;;;5141389;28;20342;-72
2023/07/30 08:18:04;;;;;;;1.60;1.50;;;21.90;1.00;;;;;;5135274;28;20350;-73
2023/07/30 08:20:37;;;;;;;1.77;1.30;;;22.10;1.00;;;;;;5137993;28;20035;-73
2023/07/30 08:23:11;;;;;;;1.40;1.30;;;22.40;99.90;;;;;;5141528;28;20365;-73
2023/07/30 08:25:42;;;;;;;1.40;1.20;;;22.40;99.90;;;;;;5153927;28;20041;-72
2023/07/30 08:28:14;;;;;;;1.35;1.00;;;22.80;1.00;;;;;;5145353;28;20042;-74
2023/07/30 08:30:48;;;;;;;0.82;0.82;;;23.00;1.00;;;;;;5139000;28;20030;-71
2023/07/30 08:33:19;;;;;;;1.77;1.33;;;23.30;99.90;;;;;;5141722;28;20027;-72
2023/07/30 08:35:56;;;;;;;1.65;1.10;;;23.10;99.90;;;;;;5141097;28;20384;-71
2023/07/30 08:38:30;;;;;;;1.30;1.20;;;23.40;10.10;;;;;;5139588;28;20038;-71
2023/07/30 08:41:03;;;;;;;1.42;0.85;;;23.70;1.00;;;;;;5141565;28;20026;-72
2023/07/30 08:43:37;;;;;;;1.33;1.10;;;24.10;1.00;;;;;;5141539;28;20038;-72
2023/07/30 08:46:13;;;;;;;1.10;1.00;;;24.10;1.00;;;;;;5125554;28;20035;-72
2023/07/30 08:48:47;;;;;;;1.35;0.90;;;24.00;99.90;;;;;;5152743;28;20034;-72
2023/07/30 08:51:19;;;;;;;1.27;0.98;;;24.00;99.90;;;;;;5142700;28;20460;-74
2023/07/30 08:53:55;;;;;;;1.52;0.75;;;24.00;99.90;;;;;;5141729;28;20049;-73
2023/07/30 08:56:26;;;;;;;0.80;0.80;;;24.20;21.80;;;;;;5132329;28;20343;-73
2023/07/30 08:59:05;;;;;;;1.23;0.93;;;24.70;1.00;;;;;;5132865;28;20038;-71
2023/07/30 09:01:39;;;;;;;0.98;0.90;;;25.30;99.90;;;;;;5139101;28;20371;-73
2023/07/30 09:04:11;;;;;;;0.82;0.77;;;25.70;99.90;;;;;;5144529;28;20570;-72
2023/07/30 09:06:42;;;;;;;1.33;1.00;;;25.70;1.00;;;;;;5123841;28;20039;-73
2023/07/30 09:09:14;;;;;;;1.00;0.90;;;25.40;1.00;;;;;;5129686;28;20043;-72
2023/07/30 09:11:53;;;;;;;0.90;0.90;;;25.80;1.00;;;;;;5160913;28;20022;-73
2023/07/30 09:14:26;;;;;;;1.02;0.80;;;25.90;1.00;;;;;;5142825;28;20369;-78
2023/07/30 09:17:00;;;;;;;1.20;0.77;;;25.70;1.00;;;;;;5131777;28;20031;-71
2023/07/30 09:19:35;;;;;;;0.95;0.90;;;25.30;1.00;;;;;;5120683;28;20070;-74
2023/07/30 09:22:09;;;;;;;1.05;0.98;;;25.50;1.00;;;;;;5152850;28;20035;-71
2023/07/30 09:24:44;;;;;;;1.00;1.00;;;25.70;1.00;;;;;;5127702;28;20205;-73
2023/07/30 09:27:26;;;;;;;1.00;0.85;;;25.90;1.00;;;;;;5152792;28;20026;-73
2023/07/30 09:29:58;;;;;;;0.85;0.85;;;26.10;1.00;;;;;;5142207;28;20019;-73
2023/07/30 09:32:38;;;;;;;0.55;0.52;;;26.30;1.00;;;;;;5133765;28;20035;-73
2023/07/30 09:35:15;;;;;;;0.60;0.60;;;26.30;99.90;;;;;;5148339;28;20042;-73
2023/07/30 09:37:57;;;;;;;1.15;0.70;;;26.50;1.00;;;;;;5157622;28;20026;-74
2023/07/30 09:40:36;;;;;;;0.93;0.80;;;26.70;1.00;;;;;;5140945;28;20041;-73
2023/07/30 09:43:09;;;;;;;0.77;0.70;;;27.40;1.00;;;;;;5137874;28;20041;-73
2023/07/30 09:45:40;;;;;;;0.95;0.90;;;27.00;1.00;;;;;;5136118;28;20029;-73
2023/07/30 09:48:11;;;;;;;0.98;0.77;;;27.10;1.00;;;;;;5137561;28;20026;-74
2023/07/30 09:50:44;;;;;;;0.95;0.73;;;26.90;1.00;;;;;;5138257;28;20031;-73
2023/07/30 09:53:17;;;;;;;0.88;0.75;;;27.00;1.00;;;;;;5138084;28;20038;-74
2023/07/30 09:55:50;;;;;;;0.77;0.77;;;27.40;99.90;;;;;;5137843;28;20742;-74
2023/07/30 09:58:21;;;;;;;1.00;1.00;;;26.70;99.90;;;;;;5149695;28;20023;-73
2023/07/30 10:00:56;;;;;;;0.52;0.52;;;26.60;99.90;;;;;;5114754;28;20039;-73
2023/07/30 10:03:28;;;;;;;1.27;0.90;;;27.10;99.90;;;;;;5138606;28;20030;-74
2023/07/30 10:06:03;;;;;;;0.60;0.60;;;27.40;99.90;;;;;;5137378;28;20027;-72
2023/07/30 10:08:39;;;;;;;1.05;0.90;;;27.40;99.90;;;;;;5143300;28;20040;-72
2023/07/30 10:11:12;;;;;;;0.88;0.80;;;27.20;99.90;;;;;;5136021;28;20043;-73
2023/07/30 10:13:45;;;;;;;0.95;0.82;;;26.70;99.90;;;;;;5137476;28;20499;-72
2023/07/30 10:16:27;;;;;;;0.80;0.80;;;26.10;99.90;;;;;;5135597;28;20372;-74
2023/07/30 10:19:01;;;;;;;0.80;0.80;;;25.80;99.90;;;;;;5137182;28;20043;-72
2023/07/30 10:21:35;;;;;;;1.00;0.90;;;26.10;99.90;;;;;;5137757;28;20036;-77
2023/07/30 10:24:09;;;;;;;1.35;1.13;;;26.20;99.90;;;;;;5143548;28;20030;-72
2023/07/30 10:26:43;;;;;;;1.30;1.20;;;26.70;99.90;;;;;;5156273;28;20026;-72
2023/07/30 10:29:16;;;;;;;0.93;0.90;;;27.20;99.90;;;;;;5150830;28;20419;-72
2023/07/30 10:31:54;;;;;;;1.00;0.80;;;27.40;99.90;;;;;;5135593;28;20034;-72
2023/07/30 10:34:45;;;;;;;0.98;0.88;;;27.70;99.90;;;;;;5142991;28;20027;-72
2023/07/30 10:37:24;;;;;;;0.70;0.70;;;28.20;37.30;;;;;;5140024;28;20045;-72
2023/07/30 10:39:57;;;;;;;0.77;0.77;;;28.50;33.40;;;;;;5156124;28;20037;-73
2023/07/30 10:42:36;;;;;;;1.02;0.70;;;28.10;1.00;;;;;;5139215;28;20508;-74
2023/07/30 10:45:11;;;;;;;0.90;0.80;;;28.20;1.00;;;;;;5134913;28;20048;-73
2023/07/30 10:47:44;;;;;;;0.90;0.90;;;28.10;1.00;;;;;;5137199;28;20033;-72
2023/07/30 10:50:18;;;;;;;2.05;1.45;;;27.80;1.00;;;;;;5137429;28;20030;-71
2023/07/30 10:52:55;;;;;;;0.98;0.77;;;28.00;1.00;;;;;;5149158;28;20051;-74
2023/07/30 10:55:30;;;;;;;0.98;0.80;;;28.00;1.00;;;;;;5135385;28;20039;-72
2023/07/30 10:58:02;;;;;;;0.90;0.90;;;27.80;1.00;;;;;;5165789;28;20065;-73
2023/07/30 11:00:34;;;;;;;0.80;0.80;;;28.20;1.00;;;;;;5140302;28;20488;-72
2023/07/30 11:03:07;;;;;;;0.85;0.80;;;27.80;1.00;;;;;;5126006;28;20371;-72
2023/07/30 11:05:39;;;;;;;1.02;0.98;;;26.90;1.00;;;;;;5135452;28;20049;-73
2023/07/30 11:08:14;;;;;;;1.27;1.17;;;26.80;1.00;;;;;;5138624;28;20046;-71
2023/07/30 11:10:51;;;;;;;1.02;0.93;;;26.30;9.20;;;;;;5144872;28;20037;-72
2023/07/30 11:13:25;;;;;;;1.45;1.35;;;25.90;99.90;;;;;;5137656;28;20039;-72
2023/07/30 11:16:01;;;;;;;1.30;1.20;;;24.90;1.00;;;;;;5158900;28;20034;-72
2023/07/30 11:18:41;;;;;;;1.02;1.00;;;24.80;99.90;;;;;;5136266;28;20040;-72
2023/07/30 11:21:14;;;;;;;1.10;0.90;;;25.80;1.00;;;;;;5144838;28;20022;-71
2023/07/30 11:23:50;;;;;;;0.88;0.80;;;25.40;1.00;;;;;;5118483;28;20040;-72
2023/07/30 11:26:23;;;;;;;1.00;0.90;;;24.80;1.00;;;;;;5135197;28;20236;-73
2023/07/30 11:28:56;;;;;;;1.13;1.00;;;24.70;1.00;;;;;;5135734;28;20023;-73
2023/07/30 11:31:30;;;;;;;1.10;1.00;;;24.50;1.00;;;;;;5137351;28;20094;-73
2023/07/30 11:34:03;;;;;;;0.80;0.80;;;25.50;1.00;;;;;;5139497;28;20031;-73
2023/07/30 11:36:37;;;;;;;0.95;0.95;;;26.40;1.00;;;;;;5145819;28;20038;-72
2023/07/30 11:39:09;;;;;;;1.88;1.00;;;25.50;1.00;;;;;;5145473;28;20053;-74
2023/07/30 11:41:41;;;;;;;0.98;0.95;;;24.90;1.00;;;;;;5157893;28;20041;-70
2023/07/30 11:44:38;;;;;;;0.90;0.90;;;24.90;1.00;;;;;;5146727;28;20023;-72
2023/07/30 11:47:12;;;;;;;1.10;0.95;;;25.50;1.00;;;;;;5160149;28;20042;-71
2023/07/30 11:49:55;;;;;;;0.93;0.88;;;26.40;1.00;;;;;;5161003;28;20038;-72
2023/07/30 11:52:32;;;;;;;2.08;1.17;;;26.40;1.00;;;;;;5161629;28;20038;-71
2023/07/30 11:55:07;;;;;;;1.55;0.95;;;26.50;1.00;;;;;;5151609;28;20041;-73
2023/07/30 11:57:38;;;;;;;1.45;0.90;;;26.10;1.00;;;;;;5148312;28;20030;-72
2023/07/30 12:00:12;;;;;;;0.90;0.88;;;26.00;1.00;;;;;;5153515;28;20597;-71
2023/07/30 12:02:46;;;;;;;0.75;0.75;;;26.20;1.00;;;;;;5143526;28;20042;-73
2023/07/30 12:05:18;;;;;;;1.48;1.38;;;27.60;1.00;;;;;;5141395;28;20041;-73
2023/07/30 12:07:52;;;;;;;1.35;1.00;;;28.00;99.90;;;;;;5144084;28;20034;-73
2023/07/30 12:10:23;;;;;;;1.00;0.90;;;27.70;99.90;;;;;;5144368;28;20567;-76
2023/07/30 12:12:54;;;;;;;0.70;0.70;;;27.90;99.90;;;;;;5139944;28;20042;-73
2023/07/30 12:15:29;;;;;;;0.70;0.70;;;29.20;99.90;;;;;;5138323;28;20247;-72
2023/07/30 12:18:00;;;;;;;2.05;1.75;;;30.10;99.90;;;;;;5124697;28;20041;-73
2023/07/30 12:20:34;;;;;;;0.90;0.90;;;31.40;1.00;;;;;;5140423;28;20687;-74
2023/07/30 12:23:08;;;;;;;0.98;0.90;;;31.20;1.00;;;;;;5140823;28;20029;-73
2023/07/30 12:25:39;;;;;;;;;;;32.70;1.00;;;;;;5140767;28;20040;-72
2023/07/30 12:28:10;;;;;;;0.85;0.85;;;33.00;1.00;;;;;;5148782;28;20475;-73
2023/07/30 12:30:41;;;;;;;0.95;0.95;;;33.80;99.90;;;;;;5159126;28;20034;-73
2023/07/30 12:33:18;;;;;;;0.77;0.77;;;33.00;99.90;;;;;;5153167;28;20061;-75
2023/07/30 12:35:53;;;;;;;1.00;0.90;;;30.70;99.90;;;;;;5142062;28;20034;-73
2023/07/30 12:38:27;;;;;;;1.27;0.70;;;30.10;99.90;;;;;;5141461;28;20035;-72
2023/07/30 12:40:58;;;;;;;0.50;0.50;;;28.70;99.90;;;;;;5142282;28;20041;-73
2023/07/30 12:43:30;;;;;;;1.08;0.80;;;27.30;99.90;;;;;;5139590;28;20046;-74
2023/07/30 12:46:01;;;;;;;4.70;1.30;;;26.70;99.90;;;;;;5144156;28;20508;-72
2023/07/30 12:48:36;;;;;;;0.95;0.63;;;26.30;99.90;;;;;;5145453;28;20421;-73
2023/07/30 12:51:12;;;;;;;0.70;0.70;;;25.90;1.00;;;;;;5153381;28;20040;-72
2023/07/30 12:53:43;;;;;;;0.80;0.77;;;25.50;1.00;;;;;;5161711;28;20030;-72
2023/07/30 12:56:15;;;;;;;0.70;0.70;;;25.60;1.00;;;;;;5151360;28;20042;-72
2023/07/30 12:58:46;;;;;;;0.50;0.50;;;25.60;1.00;;;;;;5129619;28;20086;-73
2023/07/30 13:01:21;;;;;;;0.50;0.50;;;26.50;1.00;;;;;;5125536;28;20027;-74
2023/07/30 13:03:54;;;;;;;0.57;0.57;;;28.40;1.00;;;;;;5129823;28;20031;-74
2023/07/30 13:06:25;;;;;;;0.60;0.50;;;30.00;1.00;;;;;;5123264;28;20043;-73
2023/07/30 13:08:56;;;;;;;0.80;0.80;;;31.10;99.90;;;;;;5141089;28;20030;-73
2023/07/30 13:11:27;;;;;;;0.65;0.65;;;32.20;99.90;;;;;;5135667;28;20031;-73
2023/07/30 13:13:59;;;;;;;0.60;0.60;;;33.70;99.90;;;;;;5138928;28;20034;-73
2023/07/30 13:16:31;;;;;;;0.90;0.75;;;34.60;99.90;;;;;;5154144;28;20030;-73
2023/07/30 13:19:03;;;;;;;0.80;0.65;;;34.90;99.90;;;;;;5155110;28;20021;-73
2023/07/30 13:21:34;;;;;;;0.80;0.80;;;35.60;99.90;;;;;;5180802;28;20259;-73
2023/07/30 13:24:06;;;;;;;0.60;0.60;;;36.30;99.90;;;;;;5149707;28;20042;-73
2023/07/30 13:26:38;;;;;;;0.82;0.82;;;36.70;99.90;;;;;;5147427;28;20338;-74
2023/07/30 13:29:10;;;;;;;0.80;0.80;;;37.60;99.90;;;;;;5149329;28;20027;-74
2023/07/30 13:31:43;;;;;;;0.50;0.50;;;37.20;99.90;;;;;;5144459;28;20042;-73
2023/07/30 13:34:15;;;;;;;0.60;0.60;;;35.00;83.30;;;;;;5158183;28;20040;-76
2023/07/30 13:36:46;;;;;;;0.80;0.80;;;34.40;57.30;;;;;;5146799;28;20038;-73